createdAt,value
2022-09-23T00:06:06.887Z,8.72
2022-09-23T00:34:44.569Z,8.51
2022-09-23T01:03:27.471Z,8.12
2022-09-23T01:32:08.979Z,7.96
2022-09-23T02:00:52.395Z,7.68
2022-09-23T02:29:28.588Z,7.51
2022-09-23T02:58:13.747Z,7.37
2022-09-23T03:26:58.053Z,7.31
2022-09-23T03:55:40.271Z,6.98
2022-09-23T04:24:26.573Z,6.88
2022-09-23T04:53:08.447Z,6.97
2022-09-23T05:21:38.841Z,7.04
2022-09-23T05:50:10.599Z,7.65
2022-09-23T06:18:45.308Z,8.34
2022-09-23T06:47:18.721Z,8.93
2022-09-23T07:15:51.365Z,10.01
2022-09-23T07:44:22.143Z,12.68
2022-09-23T08:13:08.742Z,12.91
2022-09-23T08:41:47.235Z,14.05
2022-09-23T09:10:24.425Z,14.68
2022-09-23T09:38:52.290Z,15.41
2022-09-23T10:07:41.706Z,16
2022-09-23T10:36:07.334Z,16.88
2022-09-23T11:04:35.145Z,17.42
2022-09-23T11:33:12.911Z,18.2
2022-09-23T12:01:50.353Z,18.91
2022-09-23T12:30:21.125Z,19.54
2022-09-23T12:58:54.360Z,19.74
2022-09-23T13:27:16.759Z,19.92
2022-09-23T13:55:52.856Z,20
2022-09-23T14:24:07.348Z,19.45
2022-09-23T14:52:27.542Z,19.15
2022-09-23T15:20:59.843Z,18.65
2022-09-23T15:49:22.884Z,18.49
2022-09-23T16:17:49.273Z,18.06
2022-09-23T16:46:28.400Z,17.43
2022-09-23T17:14:47.343Z,16.72
2022-09-23T17:43:14.560Z,16.12
2022-09-23T18:11:36.505Z,15.46
2022-09-23T18:39:56.132Z,14.52
2022-09-23T19:08:26.782Z,14.04
2022-09-23T19:36:50.723Z,13.95
2022-09-23T20:05:20.799Z,13.61
2022-09-23T20:33:36.195Z,13.22
2022-09-23T21:02:04.759Z,13.02
2022-09-23T21:30:23.678Z,12.71
2022-09-23T21:58:51.984Z,12.41
2022-09-23T22:27:34.011Z,12.41
2022-09-23T22:56:17.860Z,12.31
2022-09-23T23:24:55.531Z,12.3
2022-09-23T23:53:33.543Z,11.94
